sensor_id;sensor_type;location;lat;lon;timestamp;P1;durP1;ratioP1;P2;durP2;ratioP2
54899;SDS011;40801;41.924;25.562;2023-05-10T00:01:57;8.13;;;7.45;;
54899;SDS011;40801;41.924;25.562;2023-05-10T00:04:22;8.82;;;7.70;;
54899;SDS011;40801;41.924;25.562;2023-05-10T00:06:52;10.38;;;7.55;;
54899;SDS011;40801;41.924;25.562;2023-05-10T00:09:17;11.40;;;8.20;;
54899;SDS011;40801;41.924;25.562;2023-05-10T00:11:43;10.98;;;8.10;;
54899;SDS011;40801;41.924;25.562;2023-05-10T00:14:08;10.15;;;8.25;;
54899;SDS011;40801;41.924;25.562;2023-05-10T00:16:33;7.90;;;7.18;;
54899;SDS011;40801;41.924;25.562;2023-05-10T00:18:59;9.02;;;8.13;;
54899;SDS011;40801;41.924;25.562;2023-05-10T00:21:24;11.00;;;8.05;;
54899;SDS011;40801;41.924;25.562;2023-05-10T00:23:50;9.57;;;8.13;;
54899;SDS011;40801;41.924;25.562;2023-05-10T00:26:15;11.45;;;8.48;;
54899;SDS011;40801;41.924;25.562;2023-05-10T00:28:41;9.02;;;8.23;;
54899;SDS011;40801;41.924;25.562;2023-05-10T00:31:07;9.27;;;8.30;;
54899;SDS011;40801;41.924;25.562;2023-05-10T00:33:32;10.80;;;9.70;;
54899;SDS011;40801;41.924;25.562;2023-05-10T00:35:57;10.43;;;8.05;;
54899;SDS011;40801;41.924;25.562;2023-05-10T00:38:23;10.40;;;8.27;;
54899;SDS011;40801;41.924;25.562;2023-05-10T00:40:48;11.57;;;8.93;;
54899;SDS011;40801;41.924;25.562;2023-05-10T00:43:13;9.00;;;8.15;;
54899;SDS011;40801;41.924;25.562;2023-05-10T00:45:39;8.07;;;7.28;;
54899;SDS011;40801;41.924;25.562;2023-05-10T00:48:05;9.02;;;7.95;;
54899;SDS011;40801;41.924;25.562;2023-05-10T00:50:31;9.07;;;8.18;;
54899;SDS011;40801;41.924;25.562;2023-05-10T00:52:58;10.27;;;9.20;;
54899;SDS011;40801;41.924;25.562;2023-05-10T00:55:24;10.77;;;8.48;;
54899;SDS011;40801;41.924;25.562;2023-05-10T00:57:50;10.02;;;9.13;;
54899;SDS011;40801;41.924;25.562;2023-05-10T01:00:17;9.85;;;8.88;;
54899;SDS011;40801;41.924;25.562;2023-05-10T01:02:44;9.68;;;8.77;;
54899;SDS011;40801;41.924;25.562;2023-05-10T01:05:10;10.00;;;8.30;;
54899;SDS011;40801;41.924;25.562;2023-05-10T01:07:36;10.05;;;8.50;;
54899;SDS011;40801;41.924;25.562;2023-05-10T01:10:01;10.35;;;8.82;;
54899;SDS011;40801;41.924;25.562;2023-05-10T01:12:27;12.00;;;9.20;;
54899;SDS011;40801;41.924;25.562;2023-05-10T01:14:52;9.95;;;9.00;;
54899;SDS011;40801;41.924;25.562;2023-05-10T01:17:19;10.48;;;9.27;;
54899;SDS011;40801;41.924;25.562;2023-05-10T01:19:45;9.95;;;9.05;;
54899;SDS011;40801;41.924;25.562;2023-05-10T01:30:25;11.23;;;10.00;;
54899;SDS011;40801;41.924;25.562;2023-05-10T01:33:26;10.27;;;9.05;;
54899;SDS011;40801;41.924;25.562;2023-05-10T01:36:02;10.20;;;9.25;;
54899;SDS011;40801;41.924;25.562;2023-05-10T01:38:40;9.45;;;8.50;;
54899;SDS011;40801;41.924;25.562;2023-05-10T01:41:18;10.10;;;9.13;;
54899;SDS011;40801;41.924;25.562;2023-05-10T01:43:51;14.07;;;9.07;;
54899;SDS011;40801;41.924;25.562;2023-05-10T01:46:37;12.10;;;9.43;;
54899;SDS011;40801;41.924;25.562;2023-05-10T01:49:08;12.80;;;9.43;;
54899;SDS011;40801;41.924;25.562;2023-05-10T01:51:47;10.98;;;9.98;;
54899;SDS011;40801;41.924;25.562;2023-05-10T01:54:17;11.23;;;10.07;;
54899;SDS011;40801;41.924;25.562;2023-05-10T01:56:45;13.75;;;10.77;;
54899;SDS011;40801;41.924;25.562;2023-05-10T01:59:16;12.35;;;9.88;;
54899;SDS011;40801;41.924;25.562;2023-05-10T02:01:44;11.13;;;9.70;;
54899;SDS011;40801;41.924;25.562;2023-05-10T02:04:11;11.45;;;9.95;;
54899;SDS011;40801;41.924;25.562;2023-05-10T02:06:41;12.50;;;9.68;;
54899;SDS011;40801;41.924;25.562;2023-05-10T02:09:08;9.95;;;9.15;;
54899;SDS011;40801;41.924;25.562;2023-05-10T02:11:37;9.23;;;8.43;;
54899;SDS011;40801;41.924;25.562;2023-05-10T02:14:05;11.77;;;9.18;;
54899;SDS011;40801;41.924;25.562;2023-05-10T02:16:34;15.77;;;9.63;;
54899;SDS011;40801;41.924;25.562;2023-05-10T02:19:01;10.30;;;8.77;;
54899;SDS011;40801;41.924;25.562;2023-05-10T02:21:28;14.60;;;9.77;;
54899;SDS011;40801;41.924;25.562;2023-05-10T02:23:55;10.10;;;9.13;;
54899;SDS011;40801;41.924;25.562;2023-05-10T02:26:23;12.32;;;9.27;;
54899;SDS011;40801;41.924;25.562;2023-05-10T02:28:50;9.48;;;8.57;;
54899;SDS011;40801;41.924;25.562;2023-05-10T02:31:17;11.15;;;10.10;;
54899;SDS011;40801;41.924;25.562;2023-05-10T02:33:44;11.68;;;10.48;;
54899;SDS011;40801;41.924;25.562;2023-05-10T02:36:10;10.65;;;9.43;;
54899;SDS011;40801;41.924;25.562;2023-05-10T02:38:38;11.88;;;9.48;;
54899;SDS011;40801;41.924;25.562;2023-05-10T02:41:04;10.23;;;9.27;;
54899;SDS011;40801;41.924;25.562;2023-05-10T02:43:33;10.98;;;9.88;;
54899;SDS011;40801;41.924;25.562;2023-05-10T02:46:00;11.50;;;10.40;;
54899;SDS011;40801;41.924;25.562;2023-05-10T02:48:26;11.25;;;10.13;;
54899;SDS011;40801;41.924;25.562;2023-05-10T02:50:52;11.63;;;10.55;;
54899;SDS011;40801;41.924;25.562;2023-05-10T02:53:23;10.63;;;9.65;;
54899;SDS011;40801;41.924;25.562;2023-05-10T02:55:57;10.98;;;9.98;;
54899;SDS011;40801;41.924;25.562;2023-05-10T02:58:25;10.90;;;9.80;;
54899;SDS011;40801;41.924;25.562;2023-05-10T03:00:51;11.10;;;10.10;;
54899;SDS011;40801;41.924;25.562;2023-05-10T03:03:17;14.98;;;10.95;;
54899;SDS011;40801;41.924;25.562;2023-05-10T03:05:42;11.45;;;10.30;;
54899;SDS011;40801;41.924;25.562;2023-05-10T03:08:08;14.07;;;10.05;;
54899;SDS011;40801;41.924;25.562;2023-05-10T03:10:34;13.35;;;10.55;;
54899;SDS011;40801;41.924;25.562;2023-05-10T03:13:21;13.55;;;11.90;;
54899;SDS011;40801;41.924;25.562;2023-05-10T03:16:24;11.70;;;10.52;;
54899;SDS011;40801;41.924;25.562;2023-05-10T03:21:22;11.98;;;10.73;;
54899;SDS011;40801;41.924;25.562;2023-05-10T03:23:52;11.50;;;10.27;;
54899;SDS011;40801;41.924;25.562;2023-05-10T03:26:26;10.77;;;9.63;;
54899;SDS011;40801;41.924;25.562;2023-05-10T03:28:52;14.27;;;10.10;;
54899;SDS011;40801;41.924;25.562;2023-05-10T03:31:19;14.00;;;10.23;;
54899;SDS011;40801;41.924;25.562;2023-05-10T03:33:48;11.90;;;10.30;;
54899;SDS011;40801;41.924;25.562;2023-05-10T03:36:15;11.35;;;10.45;;
54899;SDS011;40801;41.924;25.562;2023-05-10T03:38:41;11.55;;;9.88;;
54899;SDS011;40801;41.924;25.562;2023-05-10T03:41:06;12.80;;;10.63;;
54899;SDS011;40801;41.924;25.562;2023-05-10T03:43:31;14.95;;;11.15;;
54899;SDS011;40801;41.924;25.562;2023-05-10T03:45:57;11.38;;;10.30;;
54899;SDS011;40801;41.924;25.562;2023-05-10T03:48:22;13.13;;;9.77;;
54899;SDS011;40801;41.924;25.562;2023-05-10T03:50:48;11.55;;;10.45;;
54899;SDS011;40801;41.924;25.562;2023-05-10T03:53:14;13.45;;;11.23;;
54899;SDS011;40801;41.924;25.562;2023-05-10T03:55:40;12.10;;;11.00;;
54899;SDS011;40801;41.924;25.562;2023-05-10T03:58:06;11.18;;;10.18;;
54899;SDS011;40801;41.924;25.562;2023-05-10T04:00:31;11.57;;;10.63;;
54899;SDS011;40801;41.924;25.562;2023-05-10T04:02:57;13.38;;;10.57;;
54899;SDS011;40801;41.924;25.562;2023-05-10T04:05:22;10.45;;;9.55;;
54899;SDS011;40801;41.924;25.562;2023-05-10T04:07:48;12.35;;;11.18;;
54899;SDS011;40801;41.924;25.562;2023-05-10T04:10:14;13.13;;;11.32;;
54899;SDS011;40801;41.924;25.562;2023-05-10T04:12:41;14.98;;;10.95;;
54899;SDS011;40801;41.924;25.562;2023-05-10T04:15:07;10.27;;;9.38;;
54899;SDS011;40801;41.924;25.562;2023-05-10T04:17:33;11.60;;;10.20;;
54899;SDS011;40801;41.924;25.562;2023-05-10T04:19:58;15.35;;;9.85;;
54899;SDS011;40801;41.924;25.562;2023-05-10T04:22:24;12.10;;;10.60;;
54899;SDS011;40801;41.924;25.562;2023-05-10T04:24:49;11.18;;;10.00;;
54899;SDS011;40801;41.924;25.562;2023-05-10T04:27:14;20.92;;;11.52;;
54899;SDS011;40801;41.924;25.562;2023-05-10T04:29:40;14.95;;;10.32;;
54899;SDS011;40801;41.924;25.562;2023-05-10T04:32:06;12.18;;;11.00;;
54899;SDS011;40801;41.924;25.562;2023-05-10T04:34:32;19.33;;;10.57;;
54899;SDS011;40801;41.924;25.562;2023-05-10T04:36:59;12.85;;;10.80;;
54899;SDS011;40801;41.924;25.562;2023-05-10T04:39:24;13.10;;;9.98;;
54899;SDS011;40801;41.924;25.562;2023-05-10T04:41:49;10.90;;;9.80;;
54899;SDS011;40801;41.924;25.562;2023-05-10T04:44:15;9.82;;;8.82;;
54899;SDS011;40801;41.924;25.562;2023-05-10T04:46:40;12.20;;;11.05;;
54899;SDS011;40801;41.924;25.562;2023-05-10T04:49:06;9.07;;;8.18;;
54899;SDS011;40801;41.924;25.562;2023-05-10T04:51:31;9.80;;;8.82;;
54899;SDS011;40801;41.924;25.562;2023-05-10T04:53:57;10.73;;;9.07;;
54899;SDS011;40801;41.924;25.562;2023-05-10T04:56:22;12.45;;;9.23;;
54899;SDS011;40801;41.924;25.562;2023-05-10T04:58:47;9.60;;;8.70;;
54899;SDS011;40801;41.924;25.562;2023-05-10T05:01:13;8.73;;;7.93;;
54899;SDS011;40801;41.924;25.562;2023-05-10T05:03:38;8.70;;;7.82;;
54899;SDS011;40801;41.924;25.562;2023-05-10T05:06:04;10.07;;;9.18;;
54899;SDS011;40801;41.924;25.562;2023-05-10T05:08:29;9.38;;;8.48;;
54899;SDS011;40801;41.924;25.562;2023-05-10T05:10:55;11.18;;;8.48;;
54899;SDS011;40801;41.924;25.562;2023-05-10T05:13:20;8.65;;;7.78;;
54899;SDS011;40801;41.924;25.562;2023-05-10T05:15:46;8.98;;;8.18;;
54899;SDS011;40801;41.924;25.562;2023-05-10T05:18:11;9.48;;;8.50;;
54899;SDS011;40801;41.924;25.562;2023-05-10T05:20:36;14.85;;;8.60;;
54899;SDS011;40801;41.924;25.562;2023-05-10T05:23:02;8.35;;;7.53;;
54899;SDS011;40801;41.924;25.562;2023-05-10T05:25:27;15.82;;;9.90;;
54899;SDS011;40801;41.924;25.562;2023-05-10T05:27:53;10.35;;;8.95;;
54899;SDS011;40801;41.924;25.562;2023-05-10T05:30:18;10.50;;;9.40;;
54899;SDS011;40801;41.924;25.562;2023-05-10T05:32:44;9.38;;;8.48;;
54899;SDS011;40801;41.924;25.562;2023-05-10T05:35:09;9.52;;;8.73;;
54899;SDS011;40801;41.924;25.562;2023-05-10T05:37:35;10.90;;;8.18;;
54899;SDS011;40801;41.924;25.562;2023-05-10T05:40:02;7.45;;;6.75;;
54899;SDS011;40801;41.924;25.562;2023-05-10T05:42:28;8.32;;;7.57;;
54899;SDS011;40801;41.924;25.562;2023-05-10T05:44:53;8.38;;;7.55;;
54899;SDS011;40801;41.924;25.562;2023-05-10T05:47:18;9.25;;;6.97;;
54899;SDS011;40801;41.924;25.562;2023-05-10T05:49:44;6.95;;;6.35;;
54899;SDS011;40801;41.924;25.562;2023-05-10T05:52:12;7.40;;;6.75;;
54899;SDS011;40801;41.924;25.562;2023-05-10T05:54:37;7.47;;;6.80;;
54899;SDS011;40801;41.924;25.562;2023-05-10T05:57:03;7.85;;;7.13;;
54899;SDS011;40801;41.924;25.562;2023-05-10T05:59:29;7.45;;;6.78;;
54899;SDS011;40801;41.924;25.562;2023-05-10T06:01:54;8.45;;;7.55;;
54899;SDS011;40801;41.924;25.562;2023-05-10T06:04:19;7.85;;;7.05;;
54899;SDS011;40801;41.924;25.562;2023-05-10T06:06:45;8.60;;;7.00;;
54899;SDS011;40801;41.924;25.562;2023-05-10T06:09:11;8.88;;;7.97;;
54899;SDS011;40801;41.924;25.562;2023-05-10T06:11:36;9.10;;;8.27;;
54899;SDS011;40801;41.924;25.562;2023-05-10T06:14:02;8.40;;;7.60;;
54899;SDS011;40801;41.924;25.562;2023-05-10T06:16:29;8.57;;;7.60;;
54899;SDS011;40801;41.924;25.562;2023-05-10T06:18:55;8.43;;;7.32;;
54899;SDS011;40801;41.924;25.562;2023-05-10T06:21:20;8.75;;;7.88;;
54899;SDS011;40801;41.924;25.562;2023-05-10T06:23:46;7.75;;;6.97;;
54899;SDS011;40801;41.924;25.562;2023-05-10T06:26:11;8.98;;;8.02;;
54899;SDS011;40801;41.924;25.562;2023-05-10T06:28:37;7.82;;;7.15;;
54899;SDS011;40801;41.924;25.562;2023-05-10T06:31:05;9.63;;;7.63;;
54899;SDS011;40801;41.924;25.562;2023-05-10T06:33:31;9.05;;;7.93;;
54899;SDS011;40801;41.924;25.562;2023-05-10T06:35:57;9.82;;;7.35;;
54899;SDS011;40801;41.924;25.562;2023-05-10T06:38:22;7.13;;;6.53;;
54899;SDS011;40801;41.924;25.562;2023-05-10T06:40:48;7.82;;;6.82;;
54899;SDS011;40801;41.924;25.562;2023-05-10T06:43:13;7.40;;;6.45;;
54899;SDS011;40801;41.924;25.562;2023-05-10T06:45:39;6.95;;;6.35;;
54899;SDS011;40801;41.924;25.562;2023-05-10T06:48:04;7.07;;;6.55;;
54899;SDS011;40801;41.924;25.562;2023-05-10T06:50:30;7.95;;;6.38;;
54899;SDS011;40801;41.924;25.562;2023-05-10T06:52:55;9.98;;;6.43;;
54899;SDS011;40801;41.924;25.562;2023-05-10T06:55:21;10.07;;;7.32;;
54899;SDS011;40801;41.924;25.562;2023-05-10T06:57:46;6.82;;;6.07;;
54899;SDS011;40801;41.924;25.562;2023-05-10T07:00:12;8.30;;;7.07;;
54899;SDS011;40801;41.924;25.562;2023-05-10T07:02:38;7.93;;;5.80;;
54899;SDS011;40801;41.924;25.562;2023-05-10T07:05:04;7.75;;;5.15;;
54899;SDS011;40801;41.924;25.562;2023-05-10T07:07:30;8.82;;;5.50;;
54899;SDS011;40801;41.924;25.562;2023-05-10T07:09:56;6.43;;;5.78;;
54899;SDS011;40801;41.924;25.562;2023-05-10T07:12:22;7.25;;;5.97;;
54899;SDS011;40801;41.924;25.562;2023-05-10T07:14:48;7.88;;;6.32;;
54899;SDS011;40801;41.924;25.562;2023-05-10T07:17:13;7.78;;;6.65;;
54899;SDS011;40801;41.924;25.562;2023-05-10T07:19:38;7.75;;;6.63;;
54899;SDS011;40801;41.924;25.562;2023-05-10T07:22:04;7.20;;;6.65;;
54899;SDS011;40801;41.924;25.562;2023-05-10T07:24:29;5.68;;;5.18;;
54899;SDS011;40801;41.924;25.562;2023-05-10T07:26:56;5.50;;;5.00;;
54899;SDS011;40801;41.924;25.562;2023-05-10T07:29:21;5.88;;;5.38;;
54899;SDS011;40801;41.924;25.562;2023-05-10T07:31:47;7.35;;;6.65;;
54899;SDS011;40801;41.924;25.562;2023-05-10T07:34:12;7.00;;;6.45;;
54899;SDS011;40801;41.924;25.562;2023-05-10T07:36:37;7.63;;;6.88;;
54899;SDS011;40801;41.924;25.562;2023-05-10T07:39:03;6.93;;;6.25;;
54899;SDS011;40801;41.924;25.562;2023-05-10T07:41:28;7.68;;;6.97;;
54899;SDS011;40801;41.924;25.562;2023-05-10T07:43:54;7.57;;;6.88;;
54899;SDS011;40801;41.924;25.562;2023-05-10T07:46:19;9.68;;;7.43;;
54899;SDS011;40801;41.924;25.562;2023-05-10T07:48:45;7.25;;;6.65;;
54899;SDS011;40801;41.924;25.562;2023-05-10T07:51:10;11.18;;;9.77;;
54899;SDS011;40801;41.924;25.562;2023-05-10T07:53:37;8.75;;;7.05;;
54899;SDS011;40801;41.924;25.562;2023-05-10T07:56:19;11.18;;;8.40;;
54899;SDS011;40801;41.924;25.562;2023-05-10T07:58:48;21.73;;;19.40;;
54899;SDS011;40801;41.924;25.562;2023-05-10T08:01:14;9.25;;;7.88;;
54899;SDS011;40801;41.924;25.562;2023-05-10T08:03:39;10.93;;;9.82;;
54899;SDS011;40801;41.924;25.562;2023-05-10T08:06:05;8.95;;;7.90;;
54899;SDS011;40801;41.924;25.562;2023-05-10T08:08:30;9.43;;;7.32;;
54899;SDS011;40801;41.924;25.562;2023-05-10T08:10:56;7.03;;;6.43;;
54899;SDS011;40801;41.924;25.562;2023-05-10T08:13:21;6.50;;;5.90;;
54899;SDS011;40801;41.924;25.562;2023-05-10T08:15:47;5.40;;;4.90;;
54899;SDS011;40801;41.924;25.562;2023-05-10T08:18:12;7.43;;;6.22;;
54899;SDS011;40801;41.924;25.562;2023-05-10T08:20:38;8.30;;;5.80;;
54899;SDS011;40801;41.924;25.562;2023-05-10T08:23:04;9.60;;;7.68;;
54899;SDS011;40801;41.924;25.562;2023-05-10T08:25:29;13.50;;;12.05;;
54899;SDS011;40801;41.924;25.562;2023-05-10T08:27:55;6.90;;;6.40;;
54899;SDS011;40801;41.924;25.562;2023-05-10T08:30:20;7.88;;;5.90;;
54899;SDS011;40801;41.924;25.562;2023-05-10T08:32:45;7.10;;;5.25;;
54899;SDS011;40801;41.924;25.562;2023-05-10T08:35:11;15.73;;;11.48;;
54899;SDS011;40801;41.924;25.562;2023-05-10T08:37:36;14.48;;;13.00;;
54899;SDS011;40801;41.924;25.562;2023-05-10T08:40:02;5.88;;;5.32;;
54899;SDS011;40801;41.924;25.562;2023-05-10T08:42:28;6.57;;;5.82;;
54899;SDS011;40801;41.924;25.562;2023-05-10T08:44:56;7.78;;;6.35;;
54899;SDS011;40801;41.924;25.562;2023-05-10T08:47:24;13.90;;;10.65;;
54899;SDS011;40801;41.924;25.562;2023-05-10T08:49:50;8.10;;;7.40;;
54899;SDS011;40801;41.924;25.562;2023-05-10T08:52:16;6.18;;;5.75;;
54899;SDS011;40801;41.924;25.562;2023-05-10T08:54:43;5.82;;;5.32;;
54899;SDS011;40801;41.924;25.562;2023-05-10T08:57:09;5.53;;;5.13;;
54899;SDS011;40801;41.924;25.562;2023-05-10T08:59:35;6.45;;;5.85;;
54899;SDS011;40801;41.924;25.562;2023-05-10T09:02:03;8.57;;;7.30;;
54899;SDS011;40801;41.924;25.562;2023-05-10T09:04:30;5.35;;;4.85;;
54899;SDS011;40801;41.924;25.562;2023-05-10T09:06:56;7.55;;;5.32;;
54899;SDS011;40801;41.924;25.562;2023-05-10T09:09:22;6.65;;;5.72;;
54899;SDS011;40801;41.924;25.562;2023-05-10T09:11:50;6.43;;;5.78;;
54899;SDS011;40801;41.924;25.562;2023-05-10T09:14:16;8.70;;;7.05;;
54899;SDS011;40801;41.924;25.562;2023-05-10T09:16:43;10.73;;;8.63;;
54899;SDS011;40801;41.924;25.562;2023-05-10T09:19:09;7.20;;;6.68;;
54899;SDS011;40801;41.924;25.562;2023-05-10T09:21:35;6.68;;;6.07;;
54899;SDS011;40801;41.924;25.562;2023-05-10T09:24:04;6.10;;;4.82;;
54899;SDS011;40801;41.924;25.562;2023-05-10T09:26:30;6.22;;;5.72;;
54899;SDS011;40801;41.924;25.562;2023-05-10T09:28:59;5.30;;;4.80;;
54899;SDS011;40801;41.924;25.562;2023-05-10T09:31:42;6.60;;;6.03;;
54899;SDS011;40801;41.924;25.562;2023-05-10T09:34:28;5.53;;;4.80;;
54899;SDS011;40801;41.924;25.562;2023-05-10T09:36:58;5.00;;;4.70;;
54899;SDS011;40801;41.924;25.562;2023-05-10T09:39:35;7.20;;;4.65;;
54899;SDS011;40801;41.924;25.562;2023-05-10T09:42:05;4.85;;;4.43;;
54899;SDS011;40801;41.924;25.562;2023-05-10T09:44:32;8.13;;;5.60;;
54899;SDS011;40801;41.924;25.562;2023-05-10T09:46:58;5.45;;;5.07;;
54899;SDS011;40801;41.924;25.562;2023-05-10T09:49:24;7.65;;;5.47;;
54899;SDS011;40801;41.924;25.562;2023-05-10T09:51:59;5.10;;;4.70;;
54899;SDS011;40801;41.924;25.562;2023-05-10T09:54:28;4.80;;;4.37;;
54899;SDS011;40801;41.924;25.562;2023-05-10T09:56:54;4.82;;;4.22;;
54899;SDS011;40801;41.924;25.562;2023-05-10T09:59:20;5.10;;;4.70;;
54899;SDS011;40801;41.924;25.562;2023-05-10T10:01:49;4.65;;;4.25;;
54899;SDS011;40801;41.924;25.562;2023-05-10T10:04:16;4.97;;;4.57;;
54899;SDS011;40801;41.924;25.562;2023-05-10T10:06:42;4.80;;;4.32;;
54899;SDS011;40801;41.924;25.562;2023-05-10T10:09:07;7.57;;;4.95;;
54899;SDS011;40801;41.924;25.562;2023-05-10T10:11:34;5.15;;;4.75;;
54899;SDS011;40801;41.924;25.562;2023-05-10T10:14:00;4.70;;;4.30;;
54899;SDS011;40801;41.924;25.562;2023-05-10T10:16:27;4.75;;;4.35;;
54899;SDS011;40801;41.924;25.562;2023-05-10T10:18:54;6.15;;;4.57;;
54899;SDS011;40801;41.924;25.562;2023-05-10T10:21:20;4.28;;;3.88;;
54899;SDS011;40801;41.924;25.562;2023-05-10T10:23:46;5.18;;;4.68;;
54899;SDS011;40801;41.924;25.562;2023-05-10T10:26:12;5.72;;;4.20;;
54899;SDS011;40801;41.924;25.562;2023-05-10T10:28:41;4.97;;;4.57;;
54899;SDS011;40801;41.924;25.562;2023-05-10T10:34:08;4.50;;;3.90;;
54899;SDS011;40801;41.924;25.562;2023-05-10T10:36:46;9.82;;;8.10;;
54899;SDS011;40801;41.924;25.562;2023-05-10T10:39:12;4.43;;;4.00;;
54899;SDS011;40801;41.924;25.562;2023-05-10T10:41:54;4.07;;;3.72;;
54899;SDS011;40801;41.924;25.562;2023-05-10T10:44:24;6.05;;;4.43;;
54899;SDS011;40801;41.924;25.562;2023-05-10T10:54:57;7.85;;;4.70;;
54899;SDS011;40801;41.924;25.562;2023-05-10T10:57:25;5.28;;;4.88;;
54899;SDS011;40801;41.924;25.562;2023-05-10T10:59:51;6.45;;;4.03;;
54899;SDS011;40801;41.924;25.562;2023-05-10T11:10:24;4.15;;;3.85;;
54899;SDS011;40801;41.924;25.562;2023-05-10T11:13:00;5.53;;;4.00;;
54899;SDS011;40801;41.924;25.562;2023-05-10T11:15:30;4.70;;;4.28;;
54899;SDS011;40801;41.924;25.562;2023-05-10T11:17:57;6.53;;;6.03;;
54899;SDS011;40801;41.924;25.562;2023-05-10T11:20:22;5.05;;;4.20;;
54899;SDS011;40801;41.924;25.562;2023-05-10T11:22:50;4.53;;;4.05;;
54899;SDS011;40801;41.924;25.562;2023-05-10T11:25:16;4.63;;;4.40;;
54899;SDS011;40801;41.924;25.562;2023-05-10T11:27:42;6.10;;;5.40;;
54899;SDS011;40801;41.924;25.562;2023-05-10T11:30:11;5.03;;;4.53;;
54899;SDS011;40801;41.924;25.562;2023-05-10T11:32:37;5.38;;;4.88;;
54899;SDS011;40801;41.924;25.562;2023-05-10T11:35:07;4.50;;;4.05;;
54899;SDS011;40801;41.924;25.562;2023-05-10T11:37:34;5.28;;;4.63;;
54899;SDS011;40801;41.924;25.562;2023-05-10T11:39:59;8.48;;;7.70;;
54899;SDS011;40801;41.924;25.562;2023-05-10T11:42:25;10.38;;;7.72;;
54899;SDS011;40801;41.924;25.562;2023-05-10T11:44:50;8.10;;;7.30;;
54899;SDS011;40801;41.924;25.562;2023-05-10T11:47:16;6.00;;;5.50;;
54899;SDS011;40801;41.924;25.562;2023-05-10T11:49:44;5.13;;;4.72;;
54899;SDS011;40801;41.924;25.562;2023-05-10T11:52:11;4.68;;;4.28;;
54899;SDS011;40801;41.924;25.562;2023-05-10T11:54:36;6.63;;;4.80;;
54899;SDS011;40801;41.924;25.562;2023-05-10T11:57:02;6.50;;;5.90;;
54899;SDS011;40801;41.924;25.562;2023-05-10T11:59:28;6.80;;;5.65;;
54899;SDS011;40801;41.924;25.562;2023-05-10T12:01:53;6.85;;;5.78;;
54899;SDS011;40801;41.924;25.562;2023-05-10T12:04:19;7.18;;;6.03;;
54899;SDS011;40801;41.924;25.562;2023-05-10T12:06:45;5.00;;;4.60;;
54899;SDS011;40801;41.924;25.562;2023-05-10T12:09:11;4.75;;;4.25;;
54899;SDS011;40801;41.924;25.562;2023-05-10T12:11:37;4.57;;;4.28;;
54899;SDS011;40801;41.924;25.562;2023-05-10T12:14:05;4.10;;;3.75;;
54899;SDS011;40801;41.924;25.562;2023-05-10T12:16:31;3.92;;;3.60;;
54899;SDS011;40801;41.924;25.562;2023-05-10T12:18:58;4.50;;;4.10;;
54899;SDS011;40801;41.924;25.562;2023-05-10T12:21:24;9.70;;;8.77;;
54899;SDS011;40801;41.924;25.562;2023-05-10T12:23:54;3.78;;;3.45;;
54899;SDS011;40801;41.924;25.562;2023-05-10T12:26:23;3.58;;;3.20;;
54899;SDS011;40801;41.924;25.562;2023-05-10T12:28:51;3.40;;;3.20;;
54899;SDS011;40801;41.924;25.562;2023-05-10T12:31:18;4.40;;;3.50;;
54899;SDS011;40801;41.924;25.562;2023-05-10T12:33:43;3.70;;;3.40;;
54899;SDS011;40801;41.924;25.562;2023-05-10T12:36:11;6.10;;;3.90;;
54899;SDS011;40801;41.924;25.562;2023-05-10T12:38:39;3.78;;;3.40;;
54899;SDS011;40801;41.924;25.562;2023-05-10T12:41:11;8.20;;;7.40;;
54899;SDS011;40801;41.924;25.562;2023-05-10T12:43:38;3.67;;;3.38;;
54899;SDS011;40801;41.924;25.562;2023-05-10T12:46:05;4.93;;;4.50;;
54899;SDS011;40801;41.924;25.562;2023-05-10T12:48:31;4.22;;;3.90;;
54899;SDS011;40801;41.924;25.562;2023-05-10T12:50:58;4.22;;;3.80;;
54899;SDS011;40801;41.924;25.562;2023-05-10T12:53:24;5.97;;;3.90;;
54899;SDS011;40801;41.924;25.562;2023-05-10T12:55:49;4.07;;;3.78;;
54899;SDS011;40801;41.924;25.562;2023-05-10T12:58:14;4.93;;;3.50;;
54899;SDS011;40801;41.924;25.562;2023-05-10T13:00:40;4.10;;;3.70;;
54899;SDS011;40801;41.924;25.562;2023-05-10T13:03:05;3.70;;;3.40;;
54899;SDS011;40801;41.924;25.562;2023-05-10T13:05:32;3.65;;;3.45;;
54899;SDS011;40801;41.924;25.562;2023-05-10T13:07:57;4.07;;;3.67;;
54899;SDS011;40801;41.924;25.562;2023-05-10T13:10:23;4.45;;;4.05;;
54899;SDS011;40801;41.924;25.562;2023-05-10T13:12:49;4.13;;;3.70;;
54899;SDS011;40801;41.924;25.562;2023-05-10T13:15:14;8.35;;;7.10;;
54899;SDS011;40801;41.924;25.562;2023-05-10T13:17:39;5.10;;;4.63;;
54899;SDS011;40801;41.924;25.562;2023-05-10T13:20:06;4.55;;;4.25;;
54899;SDS011;40801;41.924;25.562;2023-05-10T13:22:31;3.72;;;3.38;;
54899;SDS011;40801;41.924;25.562;2023-05-10T13:24:57;6.90;;;5.13;;
54899;SDS011;40801;41.924;25.562;2023-05-10T13:27:22;4.13;;;3.80;;
54899;SDS011;40801;41.924;25.562;2023-05-10T13:29:47;3.63;;;3.42;;
54899;SDS011;40801;41.924;25.562;2023-05-10T13:32:13;3.75;;;3.45;;
54899;SDS011;40801;41.924;25.562;2023-05-10T13:34:38;4.68;;;4.18;;
54899;SDS011;40801;41.924;25.562;2023-05-10T13:37:04;5.03;;;4.18;;
54899;SDS011;40801;41.924;25.562;2023-05-10T13:39:29;4.82;;;3.58;;
54899;SDS011;40801;41.924;25.562;2023-05-10T13:41:58;4.47;;;4.07;;
54899;SDS011;40801;41.924;25.562;2023-05-10T13:44:23;4.22;;;3.92;;
54899;SDS011;40801;41.924;25.562;2023-05-10T13:46:49;5.47;;;4.15;;
54899;SDS011;40801;41.924;25.562;2023-05-10T13:49:14;5.78;;;4.85;;
54899;SDS011;40801;41.924;25.562;2023-05-10T13:51:40;6.60;;;4.60;;
54899;SDS011;40801;41.924;25.562;2023-05-10T13:54:05;4.78;;;4.38;;
54899;SDS011;40801;41.924;25.562;2023-05-10T13:56:36;4.63;;;4.22;;
54899;SDS011;40801;41.924;25.562;2023-05-10T13:59:01;5.60;;;3.90;;
54899;SDS011;40801;41.924;25.562;2023-05-10T14:01:27;5.75;;;4.10;;
54899;SDS011;40801;41.924;25.562;2023-05-10T14:03:52;3.95;;;3.58;;
54899;SDS011;40801;41.924;25.562;2023-05-10T14:06:17;5.00;;;3.40;;
54899;SDS011;40801;41.924;25.562;2023-05-10T14:08:43;12.25;;;5.43;;
54899;SDS011;40801;41.924;25.562;2023-05-10T14:11:08;4.60;;;4.20;;
54899;SDS011;40801;41.924;25.562;2023-05-10T14:13:34;4.97;;;4.57;;
54899;SDS011;40801;41.924;25.562;2023-05-10T14:15:59;3.58;;;3.38;;
54899;SDS011;40801;41.924;25.562;2023-05-10T14:18:26;4.05;;;3.72;;
54899;SDS011;40801;41.924;25.562;2023-05-10T14:20:51;5.63;;;4.43;;
54899;SDS011;40801;41.924;25.562;2023-05-10T14:23:17;4.32;;;4.00;;
54899;SDS011;40801;41.924;25.562;2023-05-10T14:25:44;3.50;;;3.30;;
54899;SDS011;40801;41.924;25.562;2023-05-10T14:28:10;4.78;;;4.40;;
54899;SDS011;40801;41.924;25.562;2023-05-10T14:30:36;7.07;;;6.47;;
54899;SDS011;40801;41.924;25.562;2023-05-10T14:33:02;3.70;;;3.30;;
54899;SDS011;40801;41.924;25.562;2023-05-10T14:35:28;6.22;;;5.63;;
54899;SDS011;40801;41.924;25.562;2023-05-10T14:37:55;9.45;;;6.18;;
54899;SDS011;40801;41.924;25.562;2023-05-10T14:40:21;3.00;;;2.70;;
54899;SDS011;40801;41.924;25.562;2023-05-10T14:42:47;4.43;;;4.13;;
54899;SDS011;40801;41.924;25.562;2023-05-10T14:45:13;3.33;;;3.13;;
54899;SDS011;40801;41.924;25.562;2023-05-10T14:47:38;3.53;;;3.33;;
54899;SDS011;40801;41.924;25.562;2023-05-10T14:50:04;3.75;;;3.55;;
54899;SDS011;40801;41.924;25.562;2023-05-10T14:55:52;21.00;;;16.75;;
54899;SDS011;40801;41.924;25.562;2023-05-10T14:58:17;3.72;;;3.42;;
54899;SDS011;40801;41.924;25.562;2023-05-10T15:00:43;5.10;;;4.45;;